Stanley, United Kingdom
Current Conditions -  °F | °C
As of 9:20 AM on Sunday 26 Oct 2014 (Local Time) from EGNT Reporting Station
Scattered Clouds Scattered Clouds  
Wind Chill: 55°   Ceiling: Unl
Heat Index: 55°   Visibility: 6mi
Dew Point: 46°   Wind: 15mph
Humidity: 72%   Direction: 220°SW
Pressure: 29.8"   Gusts: NA
Location:  54.87°N, 1.7°W
Report Text: EGNT 260820Z 22013KT 180V250 9999 SCT030 13/08 Q1009
Loading
Personal Weather Stations






























Interactive Weather Map
Tropical Storm Tracking
New forecast layout! Learn more

10-Day Weather Forecast

Advertisements
Track Severe Weather on mobile